Latest Weather Observations for Coonabarabran Airport

IDN60801

Issued at 9:35 am EDT Thursday 23 October 2014 (issued every 30 minutes, with the page automatically refreshed every 10 minutes)

About weather observations | Map of weather stations | Latest weather observations for NSW | Other Formats
Station Details ID: 064017 Name: COONABARABRAN AIRPORT AWS Lat: -31.33 Lon: 149.27 Height: 645.0 m
Data from the previous 72 hours. | See also: Recent months for locations in New South Wales
Date/Time
EDT
Temp
°C
App
Temp
°C
Dew
Point
Rel
Hum
%
Delta-T
°C
Wind Press
QNH
hPa
Press
MSL
hPa
Rain
since 9 am
mm
Dir
 
Spd
km/h
Gust
km/h
Spd
kts
Gust
kts
23/09:30am 21.6 20.0 12.7 57 5.2 N 13 19 7 10 1022.2 1020.3 0.0
23/09:00am 19.8 16.8 11.8 60 4.6 N 19 24 10 13 1022.0 1020.0 0.0
23/08:30am 18.8 16.1 12.8 68 3.5 N 19 26 10 14 1021.7 1019.7 0.0
23/08:00am 17.9 15.6 11.7 67 3.5 N 15 22 8 12 1021.5 1019.5 0.0
23/07:30am 19.6 18.5 11.9 61 4.4 ESE 9 19 5 10 1021.2 1019.2 0.0
23/07:00am 18.4 17.0 11.0 62 4.1 SSE 9 11 5 6 1020.8 1018.7 0.0
23/06:30am 18.2 17.2 10.3 60 4.3 S 6 13 3 7 1020.4 1018.4 0.0
23/06:00am 17.8 16.7 10.7 63 3.9 S 7 11 4 6 1020.3 1018.3 0.0
23/05:30am 17.1 16.2 10.7 66 3.5 SSE 6 15 3 8 1020.0 1018.0 0.0
23/05:00am 17.0 15.4 11.5 70 3.1 WSW 11 13 6 7 1020.1 1018.1 0.0
23/04:30am 16.0 14.5 12.0 77 2.3 NNW 11 13 6 7 1019.9 1017.9 0.0
23/04:00am 16.6 15.1 11.9 74 2.6 NNW 11 13 6 7 1019.9 1017.9 0.0
23/03:30am 17.4 16.3 11.9 70 3.1 N 9 15 5 8 1020.1 1018.1 0.0
23/03:00am 17.3 16.6 12.0 71 3.0 N 7 15 4 8 1020.6 1018.6 0.0
23/02:30am 18.9 14.9 11.7 63 4.1 NW 24 32 13 17 1020.9 1018.9 0.0
23/02:00am 21.2 15.5 9.8 48 6.3 WNW 30 35 16 19 1021.4 1019.4 0.0
23/01:30am 19.2 16.8 9.9 55 5.1 N 13 19 7 10 1021.2 1019.2 0.0
23/01:00am 20.2 18.2 10.0 52 5.6 NNW 11 15 6 8 1021.6 1019.6 0.0
23/12:30am 19.6 16.9 10.3 55 5.2 NW 15 17 8 9 1021.8 1019.8 0.0
23/12:00am 18.6 15.7 9.7 56 4.9 N 15 17 8 9 1021.4 1019.4 0.0
 
Date/Time
EDT
Temp
°C
App
Temp
°C
Dew
Point
Rel
Hum
%
Delta-T
°C
Wind Press
QNH
hPa
Press
MSL
hPa
Rain
since 9 am
mm
Dir
 
Spd
km/h
Gust
km/h
Spd
kts
Gust
kts
22/11:30pm 19.8 17.4 10.0 53 5.4 N 13 17 7 9 1021.5 1019.5 0.0
22/11:00pm 20.0 17.6 10.1 53 5.5 NNW 13 15 7 8 1021.7 1019.7 0.0
22/10:30pm 20.0 18.0 10.1 53 5.5 N 11 15 6 8 1021.7 1019.7 0.0
22/10:00pm 20.4 18.3 9.9 51 5.8 N 11 13 6 7 1021.7 1019.7 0.0
22/09:30pm 21.2 19.3 10.4 50 6.1 NNW 11 11 6 6 1021.7 1019.7 0.0
22/09:00pm 21.4 20.0 10.9 51 5.9 NNW 9 11 5 6 1021.8 1019.8 0.0
22/08:30pm 21.3 19.9 10.8 51 5.9 N 9 13 5 7 1021.6 1019.6 0.0
22/08:00pm 21.8 20.3 10.6 49 6.3 N 9 9 5 5 1021.2 1019.2 0.0
22/07:30pm 22.4 20.9 10.5 47 6.7 N 9 11 5 6 1021.0 1019.0 0.0
22/07:00pm 23.7 22.2 10.4 43 7.5 N 9 15 5 8 1021.0 1019.0 0.0
22/06:30pm 24.9 23.0 10.4 40 8.3 N 11 15 6 8 1020.9 1018.9 0.0
22/06:00pm 25.5 22.8 10.5 39 8.6 N 15 20 8 11 1020.9 1018.9 0.0
22/05:30pm 26.3 23.9 10.0 36 9.3 N 13 20 7 11 1021.1 1019.1 0.0
22/05:00pm 25.8 25.5 10.0 37 9.0 NW 2 7 1 4 1021.2 1019.2 0.0
22/04:30pm 26.6 25.1 10.7 37 9.2 S 9 13 5 7 1021.3 1019.3 0.0
22/04:00pm 25.8 24.1 10.0 37 9.0 NNE 9 13 5 7 1021.4 1019.4 0.0
22/03:30pm 26.1 25.0 10.7 38 8.9 SSW 7 13 4 7 1021.7 1019.7 0.0
22/03:00pm 26.3 24.6 11.2 38 8.8 W 11 20 6 11 1022.2 1020.3 0.0
22/02:30pm 25.2 22.6 10.6 40 8.4 W 15 24 8 13 1022.8 1020.8 0.0
22/02:00pm 25.0 22.4 10.8 41 8.1 N 15 22 8 12 1023.3 1021.3 0.0
22/01:30pm 24.1 21.9 10.7 43 7.7 NNW 13 20 7 11 1023.8 1021.9 0.0
22/01:00pm 23.4 20.4 10.8 45 7.2 N 17 24 9 13 1024.3 1022.3 0.0
22/12:30pm 23.1 20.8 10.5 45 7.2 NNW 13 22 7 12 1024.8 1022.8 0.0
22/12:00pm 21.9 19.6 10.4 48 6.5 N 13 22 7 12 1025.2 1023.3 0.0
22/11:30am 21.4 18.8 10.6 50 6.1 N 15 24 8 13 1025.6 1023.7 0.0
22/11:00am 20.8 17.7 10.3 51 5.8 N 17 24 9 13 1026.1 1024.1 0.0
22/10:30am 19.5 16.7 10.0 54 5.2 N 15 24 8 13 1026.4 1024.5 0.0
22/10:00am 18.0 15.0 9.1 56 4.8 N 15 26 8 14 1026.6 1024.7 0.0
22/09:30am 16.8 14.6 9.2 61 4.1 NNE 11 17 6 9 1026.7 1024.8 0.0
22/09:00am 15.5 11.9 8.5 63 3.7 NNE 17 22 9 12 1026.5 1024.6 0.0
22/08:30am 13.8 10.1 8.0 68 3.0 NNE 17 20 9 11 1026.5 1024.6 0.0
22/08:00am 12.8 9.5 7.9 72 2.5 ENE 15 19 8 10 1026.6 1024.7 0.0
22/07:30am 11.8 8.8 7.9 77 2.0 E 13 17 7 9 1026.4 1024.5 0.0
22/07:00am 10.6 8.1 8.0 84 1.3 NE 11 15 6 8 1026.3 1024.4 0.0
22/06:30am 9.9 6.5 7.8 87 1.0 NE 15 17 8 9 1026.0 1024.0 0.0
22/06:00am 9.2 6.5 7.5 89 0.8 NE 11 15 6 8 1025.8 1023.8 0.0
22/05:30am 9.1 6.7 7.2 88 0.9 NE 9 13 5 7 1025.6 1023.7 0.0
22/05:00am 9.1 7.8 7.7 91 0.7 ENE 4 17 2 9 1025.6 1023.7 0.0
22/04:30am 9.1 7.2 7.4 89 0.8 ENE 7 17 4 9 1025.8 1023.8 0.0
22/04:00am 9.7 7.4 7.5 86 1.1 ESE 9 17 5 9 1025.6 1023.7 0.0
22/03:30am 10.3 7.0 7.9 85 1.2 E 15 20 8 11 1025.4 1023.5 0.0
22/03:00am 10.3 7.3 7.5 83 1.4 ESE 13 15 7 8 1025.9 1023.9 0.0
22/02:30am 10.6 7.1 7.3 80 1.6 ESE 15 19 8 10 1026.2 1024.2 0.0
22/02:00am 11.1 8.1 7.6 79 1.7 ESE 13 19 7 10 1026.6 1024.7 0.0
22/01:30am 10.5 8.1 7.0 79 1.7 S 9 11 5 6 1026.9 1025.0 0.0
22/01:00am 10.6 8.1 6.7 77 1.9 S 9 11 5 6 1027.3 1025.4 0.0
22/12:30am 10.9 8.1 7.0 77 1.9 S 11 13 6 7 1027.7 1025.8 0.0
22/12:00am 11.3 8.9 6.8 74 2.2 S 9 11 5 6 1027.8 1025.9 0.0
 
Date/Time
EDT
Temp
°C
App
Temp
°C
Dew
Point
Rel
Hum
%
Delta-T
°C
Wind Press
QNH
hPa
Press
MSL
hPa
Rain
since 9 am
mm
Dir
 
Spd
km/h
Gust
km/h
Spd
kts
Gust
kts
21/11:30pm 11.7 8.9 7.0 73 2.3 S 11 13 6 7 1027.9 1026.0 0.0
21/11:00pm 12.5 9.3 7.0 69 2.7 S 13 15 7 8 1027.9 1026.0 0.0
21/10:30pm 12.8 9.6 7.0 68 2.9 S 13 15 7 8 1028.0 1026.1 0.0
21/10:00pm 13.6 10.5 7.2 65 3.2 SSE 13 15 7 8 1027.9 1026.0 0.0
21/09:30pm 14.3 11.2 7.4 63 3.5 S 13 15 7 8 1027.5 1025.5 0.0
21/09:00pm 15.8 13.2 7.8 59 4.1 SE 11 15 6 8 1027.3 1025.4 0.0
21/08:30pm 17.1 12.9 8.3 56 4.6 E 20 30 11 16 1027.0 1025.1 0.0
21/08:00pm 18.0 14.0 8.3 53 5.1 E 19 26 10 14 1026.6 1024.7 0.0
21/07:30pm 19.3 16.1 8.3 49 5.9 ENE 15 20 8 11 1026.1 1024.1 0.0
21/07:00pm 21.6 17.7 8.5 43 7.1 ENE 19 28 10 15 1025.6 1023.7 0.0
21/06:30pm 23.2 21.2 8.5 39 8.1 ESE 9 22 5 12 1025.3 1023.4 0.0
21/06:00pm 24.5 22.6 8.9 37 8.6 E 9 13 5 7 1025.1 1023.2 0.0
21/05:30pm 24.9 23.0 9.2 37 8.8 NE 9 17 5 9 1025.1 1023.2 0.0
21/05:00pm 24.9 23.0 9.2 37 8.8 ESE 9 13 5 7 1025.2 1023.3 0.0
21/04:30pm 25.0 22.8 9.3 37 8.8 ENE 11 17 6 9 1025.3 1023.4 0.0
21/04:00pm 25.1 23.3 9.4 37 8.8 NE 9 17 5 9 1025.5 1023.6 0.0
21/03:30pm 24.6 21.9 9.0 37 8.7 ENE 13 15 7 8 1025.9 1023.9 0.0
21/03:00pm 24.8 21.9 9.5 38 8.6 E 15 26 8 14 1026.2 1024.2 0.0
21/02:30pm 23.7 21.0 8.9 39 8.2 NNE 13 20 7 11 1026.7 1024.8 0.0
21/02:00pm 23.7 20.4 9.7 41 7.8 E 17 30 9 16 1027.2 1025.3 0.0
21/01:30pm 23.0 19.7 9.4 42 7.6 ENE 17 28 9 15 1027.7 1025.8 0.0
21/01:00pm 22.9 19.3 10.0 44 7.2 ENE 19 26 10 14 1028.3 1026.4 0.0
21/12:30pm 22.6 19.9 10.4 46 6.9 NNE 15 24 8 13 1028.6 1026.7 0.0
21/12:00pm 21.6 18.4 9.8 47 6.5 E 17 24 9 13 1028.9 1027.0 0.0
21/11:30am 20.7 17.4 9.6 49 6.1 ENE 17 28 9 15 1029.2 1027.3 0.0
21/11:00am 19.9 16.2 9.5 51 5.7 ENE 19 28 10 15 1029.5 1027.6 0.0
21/10:30am 19.0 14.7 9.2 53 5.3 NE 22 32 12 17 1029.6 1027.7 0.0
21/10:00am 18.2 14.2 9.0 55 4.9 ENE 20 32 11 17 1029.8 1027.9 0.0
21/09:30am 17.3 13.6 10.0 62 4.0 ENE 20 28 11 15 1029.7 1027.8 0.0
21/09:00am 15.8 12.5 9.7 67 3.3 E 17 26 9 14 1029.7 1027.8 0.0
21/08:30am 14.4 10.8 10.0 75 2.4 E 19 24 10 13 1029.5 1027.6 0.0
21/08:00am 13.0 10.5 9.8 81 1.7 ESE 13 20 7 11 1029.4 1027.5 0.0
21/07:30am 11.7 10.2 10.4 92 0.7 SSE 9 15 5 8 1029.1 1027.2 0.0
21/07:00am 10.5 8.9 10.2 98 0.2 SSE 9 15 5 8 1028.6 1026.7 0.0
21/06:30am 9.9 7.8 9.9 100 0.0 SSE 11 15 6 8 1028.1 1026.2 0.0
21/06:00am 9.4 7.6 9.4 100 0.0 S 9 13 5 7 1027.7 1025.8 0.0
21/05:30am 9.5 7.3 9.4 99 0.1 S 11 13 6 7 1027.3 1025.4 0.0
21/05:00am 10.6 8.6 10.0 96 0.3 SE 11 15 6 8 1027.1 1025.2 0.0
21/04:30am 10.5 9.1 9.6 94 0.5 SE 7 13 4 7 1027.5 1025.5 0.0
21/04:00am 10.5 8.7 9.6 94 0.5 S 9 13 5 7 1027.5 1025.5 0.0
21/03:30am 11.1 9.4 9.9 92 0.6 SSE 9 15 5 8 1027.1 1025.2 0.0
21/03:00am 12.0 8.5 10.2 89 1.0 E 19 26 10 14 1026.9 1025.0 0.0
21/02:30am 12.2 8.7 10.1 87 1.1 E 19 26 10 14 1026.8 1024.9 0.0
21/02:00am 12.8 8.8 10.3 85 1.3 ENE 22 32 12 17 1027.1 1025.2 0.0
21/01:30am 13.2 9.1 10.2 82 1.6 E 22 30 12 16 1027.5 1025.5 0.0
21/01:00am 13.7 10.0 10.1 79 1.9 E 20 32 11 17 1027.5 1025.5 0.0
21/12:30am 13.7 10.4 9.7 77 2.1 E 17 24 9 13 1027.5 1025.5 0.0
21/12:00am 13.4 11.2 9.3 76 2.1 ENE 11 15 6 8 1027.6 1025.6 0.0
 
Date/Time
EDT
Temp
°C
App
Temp
°C
Dew
Point
Rel
Hum
%
Delta-T
°C
Wind Press
QNH
hPa
Press
MSL
hPa
Rain
since 9 am
mm
Dir
 
Spd
km/h
Gust
km/h
Spd
kts
Gust
kts
20/11:30pm 13.3 10.4 8.2 71 2.6 E 13 17 7 9 1027.8 1025.9 0.0
20/11:00pm 14.9 11.0 8.6 66 3.3 E 19 24 10 13 1027.6 1025.6 0.0
20/10:30pm 14.9 12.1 8.6 66 3.3 ESE 13 17 7 9 1027.5 1025.5 0.0
20/10:00pm 14.8 12.8 8.5 66 3.3 SSE 9 15 5 8 1027.3 1025.4 0.0
20/09:30pm 15.4 13.5 8.9 65 3.4 S 9 11 5 6 1027.2 1025.3 0.0
20/09:00pm 16.0 14.0 8.7 62 3.8 SSE 9 13 5 7 1026.8 1024.9 0.0
20/08:30pm 17.4 14.7 9.1 58 4.5 SE 13 17 7 9 1026.4 1024.5 0.0
20/08:00pm 18.6 15.1 8.8 53 5.2 SSE 17 24 9 13 1025.9 1023.9 0.0
20/07:30pm 19.6 16.1 8.6 49 5.9 SSE 17 22 9 12 1025.2 1023.3 0.0
20/07:00pm 21.9 18.0 8.8 43 7.1 SSE 19 24 10 13 1024.8 1022.8 0.0
20/06:30pm 23.7 19.0 7.8 36 8.6 SE 22 28 12 15 1024.5 1022.5 0.0
20/06:00pm 25.1 20.9 8.1 34 9.3 ESE 20 32 11 17 1024.2 1022.2 0.0
20/05:30pm 25.7 20.7 8.2 33 9.7 SSE 24 35 13 19 1023.8 1021.9 0.0
20/05:00pm 27.4 23.2 8.3 30 10.6 ESE 20 33 11 18 1023.6 1021.7 0.0
20/04:30pm 28.1 22.7 7.9 28 11.2 ESE 26 33 14 18 1023.4 1021.4 0.0
20/04:00pm 29.5 25.5 2.7 18 13.7 ENE 13 20 7 11 1023.4 1021.4 0.0
20/03:30pm 29.3 24.9 2.5 18 13.7 ESE 15 24 8 13 1023.6 1021.7 0.0
20/03:00pm 29.5 25.6 3.5 19 13.5 S 13 20 7 11 1024.0 1022.1 0.0
20/02:30pm 29.2 25.1 2.5 18 13.7 S 13 20 7 11 1024.5 1022.5 0.0
20/02:00pm 29.0 26.0 2.3 18 13.5 SW 7 13 4 7 1025.0 1023.1 0.0
20/01:30pm 28.4 23.7 3.3 20 12.9 ESE 17 28 9 15 1025.5 1023.6 0.0
20/01:00pm 28.6 24.6 4.8 22 12.6 S 15 24 8 13 1025.8 1023.8 0.0
20/12:30pm 28.5 24.5 4.7 22 12.6 SSE 15 24 8 13 1026.1 1024.1 0.0
20/12:00pm 27.8 24.2 4.8 23 12.1 S 13 26 7 14 1026.6 1024.7 0.0
20/11:30am 26.7 22.0 3.2 22 12.0 E 17 26 9 14 1026.7 1024.8 0.0
20/11:00am 26.3 22.4 3.5 23 11.6 S 13 26 7 14 1027.2 1025.3 0.0
20/10:30am 26.2 22.5 4.6 25 11.2 SE 13 17 7 9 1027.2 1025.3 0.0
20/10:00am 25.7 23.3 5.3 27 10.7 S 7 13 4 7 1027.3 1025.4 0.0

Other Formats:

Comma delimited format used in spreadsheet applications
http://www.bom.gov.au/fwo/IDN60801/IDN60801.95728.axf

JavaScript Object Notation format (JSON) in row-major order
http://www.bom.gov.au/fwo/IDN60801/IDN60801.95728.json